sensor_id;sensor_type;location;lat;lon;timestamp;temperature;humidity
13472;DHT22;6808;49.444;11.034;2023-07-02T00:02:24;19.20;99.90
13472;DHT22;6808;49.444;11.034;2023-07-02T00:04:50;19.20;99.90
13472;DHT22;6808;49.444;11.034;2023-07-02T00:07:15;19.10;99.90
13472;DHT22;6808;49.444;11.034;2023-07-02T00:09:41;19.10;99.90
13472;DHT22;6808;49.444;11.034;2023-07-02T00:12:07;19.10;99.90
13472;DHT22;6808;49.444;11.034;2023-07-02T00:14:33;19.10;99.90
13472;DHT22;6808;49.444;11.034;2023-07-02T00:16:58;19.10;99.90
13472;DHT22;6808;49.444;11.034;2023-07-02T00:19:24;19.10;99.90
13472;DHT22;6808;49.444;11.034;2023-07-02T00:21:50;19.20;99.90
13472;DHT22;6808;49.444;11.034;2023-07-02T00:24:16;19.10;99.90
13472;DHT22;6808;49.444;11.034;2023-07-02T00:26:42;19.00;99.90
13472;DHT22;6808;49.444;11.034;2023-07-02T00:29:08;19.10;99.90
13472;DHT22;6808;49.444;11.034;2023-07-02T00:31:34;19.00;99.90
13472;DHT22;6808;49.444;11.034;2023-07-02T00:34:00;19.00;99.90
13472;DHT22;6808;49.444;11.034;2023-07-02T00:36:27;18.90;99.90
13472;DHT22;6808;49.444;11.034;2023-07-02T00:38:52;18.90;99.90
13472;DHT22;6808;49.444;11.034;2023-07-02T00:41:18;18.90;99.90
13472;DHT22;6808;49.444;11.034;2023-07-02T00:43:44;18.90;99.90
13472;DHT22;6808;49.444;11.034;2023-07-02T00:46:14;18.90;99.90
13472;DHT22;6808;49.444;11.034;2023-07-02T00:48:47;18.50;99.90
13472;DHT22;6808;49.444;11.034;2023-07-02T00:51:20;18.90;99.90
13472;DHT22;6808;49.444;11.034;2023-07-02T00:53:47;18.90;99.90
13472;DHT22;6808;49.444;11.034;2023-07-02T00:56:13;18.80;99.90
13472;DHT22;6808;49.444;11.034;2023-07-02T00:58:40;18.80;99.90
13472;DHT22;6808;49.444;11.034;2023-07-02T01:01:15;18.90;99.90
13472;DHT22;6808;49.444;11.034;2023-07-02T01:04:00;18.90;99.90
13472;DHT22;6808;49.444;11.034;2023-07-02T01:06:28;18.90;99.90
13472;DHT22;6808;49.444;11.034;2023-07-02T01:08:56;19.00;99.90
13472;DHT22;6808;49.444;11.034;2023-07-02T01:11:33;19.00;99.90
13472;DHT22;6808;49.444;11.034;2023-07-02T01:14:24;18.90;99.90
13472;DHT22;6808;49.444;11.034;2023-07-02T01:16:52;18.90;99.90
13472;DHT22;6808;49.444;11.034;2023-07-02T01:21:58;18.80;99.90
13472;DHT22;6808;49.444;11.034;2023-07-02T01:24:24;18.90;99.90
13472;DHT22;6808;49.444;11.034;2023-07-02T01:26:49;18.80;99.90
13472;DHT22;6808;49.444;11.034;2023-07-02T01:29:21;18.80;99.90
13472;DHT22;6808;49.444;11.034;2023-07-02T01:31:47;18.80;99.90
13472;DHT22;6808;49.444;11.034;2023-07-02T01:34:13;18.80;99.90
13472;DHT22;6808;49.444;11.034;2023-07-02T01:36:40;18.80;99.90
13472;DHT22;6808;49.444;11.034;2023-07-02T01:39:06;18.80;99.90
13472;DHT22;6808;49.444;11.034;2023-07-02T01:41:37;18.80;99.90
13472;DHT22;6808;49.444;11.034;2023-07-02T01:44:06;18.70;99.90
13472;DHT22;6808;49.444;11.034;2023-07-02T01:46:32;18.70;99.90
13472;DHT22;6808;49.444;11.034;2023-07-02T01:48:57;18.80;99.90
13472;DHT22;6808;49.444;11.034;2023-07-02T01:51:23;18.70;99.90
13472;DHT22;6808;49.444;11.034;2023-07-02T01:53:48;18.70;99.90
13472;DHT22;6808;49.444;11.034;2023-07-02T01:56:14;18.80;99.90
13472;DHT22;6808;49.444;11.034;2023-07-02T01:58:39;18.70;99.90
13472;DHT22;6808;49.444;11.034;2023-07-02T02:01:05;18.70;99.90
13472;DHT22;6808;49.444;11.034;2023-07-02T02:03:30;18.90;99.90
13472;DHT22;6808;49.444;11.034;2023-07-02T02:05:56;18.80;99.90
13472;DHT22;6808;49.444;11.034;2023-07-02T02:08:21;18.80;99.90
13472;DHT22;6808;49.444;11.034;2023-07-02T02:10:47;18.70;99.90
13472;DHT22;6808;49.444;11.034;2023-07-02T02:13:13;18.60;99.90
13472;DHT22;6808;49.444;11.034;2023-07-02T02:15:39;18.60;99.90
13472;DHT22;6808;49.444;11.034;2023-07-02T02:18:06;18.50;99.90
13472;DHT22;6808;49.444;11.034;2023-07-02T02:20:32;18.50;99.90
13472;DHT22;6808;49.444;11.034;2023-07-02T02:22:57;18.50;99.90
13472;DHT22;6808;49.444;11.034;2023-07-02T02:25:23;18.40;99.90
13472;DHT22;6808;49.444;11.034;2023-07-02T02:27:49;18.40;99.90
13472;DHT22;6808;49.444;11.034;2023-07-02T02:30:14;18.50;99.90
13472;DHT22;6808;49.444;11.034;2023-07-02T02:32:40;18.40;99.90
13472;DHT22;6808;49.444;11.034;2023-07-02T02:35:06;18.30;99.90
13472;DHT22;6808;49.444;11.034;2023-07-02T02:37:34;18.30;99.90
13472;DHT22;6808;49.444;11.034;2023-07-02T02:40:00;18.30;99.90
13472;DHT22;6808;49.444;11.034;2023-07-02T02:42:25;18.30;99.90
13472;DHT22;6808;49.444;11.034;2023-07-02T02:44:51;18.50;99.90
13472;DHT22;6808;49.444;11.034;2023-07-02T02:47:17;18.30;99.90
13472;DHT22;6808;49.444;11.034;2023-07-02T02:49:42;18.10;99.90
13472;DHT22;6808;49.444;11.034;2023-07-02T02:52:08;18.10;99.90
13472;DHT22;6808;49.444;11.034;2023-07-02T02:54:33;18.10;99.90
13472;DHT22;6808;49.444;11.034;2023-07-02T02:56:59;18.20;99.90
13472;DHT22;6808;49.444;11.034;2023-07-02T02:59:24;18.10;99.90
13472;DHT22;6808;49.444;11.034;2023-07-02T03:01:50;18.10;99.90
13472;DHT22;6808;49.444;11.034;2023-07-02T03:04:17;18.00;99.90
13472;DHT22;6808;49.444;11.034;2023-07-02T03:06:42;18.00;99.90
13472;DHT22;6808;49.444;11.034;2023-07-02T03:09:08;17.90;99.90
13472;DHT22;6808;49.444;11.034;2023-07-02T03:11:33;17.80;99.90
13472;DHT22;6808;49.444;11.034;2023-07-02T03:13:59;17.90;99.90
13472;DHT22;6808;49.444;11.034;2023-07-02T03:16:25;17.90;99.90
13472;DHT22;6808;49.444;11.034;2023-07-02T03:18:50;17.90;99.90
13472;DHT22;6808;49.444;11.034;2023-07-02T03:21:16;17.90;99.90
13472;DHT22;6808;49.444;11.034;2023-07-02T03:23:42;17.90;99.90
13472;DHT22;6808;49.444;11.034;2023-07-02T03:26:07;17.90;99.90
13472;DHT22;6808;49.444;11.034;2023-07-02T03:28:33;17.90;99.90
13472;DHT22;6808;49.444;11.034;2023-07-02T03:31:00;18.00;99.90
13472;DHT22;6808;49.444;11.034;2023-07-02T03:33:25;18.00;99.90
13472;DHT22;6808;49.444;11.034;2023-07-02T03:35:51;18.00;99.90
13472;DHT22;6808;49.444;11.034;2023-07-02T03:38:16;18.00;99.90
13472;DHT22;6808;49.444;11.034;2023-07-02T03:40:42;18.00;99.90
13472;DHT22;6808;49.444;11.034;2023-07-02T03:43:07;18.10;99.90
13472;DHT22;6808;49.444;11.034;2023-07-02T03:45:33;18.00;99.90
13472;DHT22;6808;49.444;11.034;2023-07-02T03:47:58;17.80;99.90
13472;DHT22;6808;49.444;11.034;2023-07-02T03:50:24;17.80;99.90
13472;DHT22;6808;49.444;11.034;2023-07-02T03:52:50;17.80;99.90
13472;DHT22;6808;49.444;11.034;2023-07-02T03:55:15;17.80;99.90
13472;DHT22;6808;49.444;11.034;2023-07-02T03:57:41;17.80;99.90
13472;DHT22;6808;49.444;11.034;2023-07-02T04:00:07;17.80;99.90
13472;DHT22;6808;49.444;11.034;2023-07-02T04:02:33;17.80;99.90
13472;DHT22;6808;49.444;11.034;2023-07-02T04:04:58;17.80;99.90
13472;DHT22;6808;49.444;11.034;2023-07-02T04:07:24;17.70;99.90
13472;DHT22;6808;49.444;11.034;2023-07-02T04:09:49;17.70;99.90
13472;DHT22;6808;49.444;11.034;2023-07-02T04:12:15;17.70;99.90
13472;DHT22;6808;49.444;11.034;2023-07-02T04:14:40;17.70;99.90
13472;DHT22;6808;49.444;11.034;2023-07-02T04:17:06;17.70;99.90
13472;DHT22;6808;49.444;11.034;2023-07-02T04:19:31;17.70;99.90
13472;DHT22;6808;49.444;11.034;2023-07-02T04:21:57;17.70;99.90
13472;DHT22;6808;49.444;11.034;2023-07-02T04:24:23;17.70;99.90
13472;DHT22;6808;49.444;11.034;2023-07-02T04:26:48;17.60;99.90
13472;DHT22;6808;49.444;11.034;2023-07-02T04:29:14;17.60;99.90
13472;DHT22;6808;49.444;11.034;2023-07-02T04:31:39;17.70;99.90
13472;DHT22;6808;49.444;11.034;2023-07-02T04:34:05;17.70;99.90
13472;DHT22;6808;49.444;11.034;2023-07-02T04:36:31;17.60;99.90
13472;DHT22;6808;49.444;11.034;2023-07-02T04:38:57;17.70;99.90
13472;DHT22;6808;49.444;11.034;2023-07-02T04:41:23;17.70;99.90
13472;DHT22;6808;49.444;11.034;2023-07-02T04:43:48;17.70;99.90
13472;DHT22;6808;49.444;11.034;2023-07-02T04:46:14;17.80;99.90
13472;DHT22;6808;49.444;11.034;2023-07-02T04:48:39;17.70;99.90
13472;DHT22;6808;49.444;11.034;2023-07-02T04:51:05;17.80;99.90
13472;DHT22;6808;49.444;11.034;2023-07-02T04:53:31;17.80;99.90
13472;DHT22;6808;49.444;11.034;2023-07-02T04:55:56;17.80;99.90
13472;DHT22;6808;49.444;11.034;2023-07-02T04:58:23;17.80;99.90
13472;DHT22;6808;49.444;11.034;2023-07-02T05:00:48;18.00;99.90
13472;DHT22;6808;49.444;11.034;2023-07-02T05:03:14;17.90;99.90
13472;DHT22;6808;49.444;11.034;2023-07-02T05:05:39;17.90;99.90
13472;DHT22;6808;49.444;11.034;2023-07-02T05:08:05;17.90;99.90
13472;DHT22;6808;49.444;11.034;2023-07-02T05:10:30;17.90;99.90
13472;DHT22;6808;49.444;11.034;2023-07-02T05:12:56;17.90;99.90
13472;DHT22;6808;49.444;11.034;2023-07-02T05:15:23;17.90;99.90
13472;DHT22;6808;49.444;11.034;2023-07-02T05:17:49;18.00;99.90
13472;DHT22;6808;49.444;11.034;2023-07-02T05:20:15;18.00;99.90
13472;DHT22;6808;49.444;11.034;2023-07-02T05:22:40;18.00;99.90
13472;DHT22;6808;49.444;11.034;2023-07-02T05:25:06;18.00;99.90
13472;DHT22;6808;49.444;11.034;2023-07-02T05:27:32;18.00;99.90
13472;DHT22;6808;49.444;11.034;2023-07-02T05:29:57;18.00;99.90
13472;DHT22;6808;49.444;11.034;2023-07-02T05:32:23;18.00;99.90
13472;DHT22;6808;49.444;11.034;2023-07-02T05:34:49;18.00;99.90
13472;DHT22;6808;49.444;11.034;2023-07-02T05:37:14;18.00;99.90
13472;DHT22;6808;49.444;11.034;2023-07-02T05:39:40;18.00;99.90
13472;DHT22;6808;49.444;11.034;2023-07-02T05:42:05;18.00;99.90
13472;DHT22;6808;49.444;11.034;2023-07-02T05:44:31;17.90;99.90
13472;DHT22;6808;49.444;11.034;2023-07-02T05:46:56;18.00;99.90
13472;DHT22;6808;49.444;11.034;2023-07-02T05:49:22;17.90;99.90
13472;DHT22;6808;49.444;11.034;2023-07-02T05:51:47;18.00;99.90
13472;DHT22;6808;49.444;11.034;2023-07-02T05:54:13;18.00;99.90
13472;DHT22;6808;49.444;11.034;2023-07-02T05:56:39;18.00;99.90
13472;DHT22;6808;49.444;11.034;2023-07-02T05:59:04;17.90;99.90
13472;DHT22;6808;49.444;11.034;2023-07-02T06:01:30;18.10;99.90
13472;DHT22;6808;49.444;11.034;2023-07-02T06:03:55;18.10;99.90
13472;DHT22;6808;49.444;11.034;2023-07-02T06:06:21;18.10;99.90
13472;DHT22;6808;49.444;11.034;2023-07-02T06:08:48;18.20;99.90
13472;DHT22;6808;49.444;11.034;2023-07-02T09:35:45;21.60;85.60
13472;DHT22;6808;49.444;11.034;2023-07-02T09:38:12;21.70;81.60
13472;DHT22;6808;49.444;11.034;2023-07-02T09:40:47;21.70;84.70
13472;DHT22;6808;49.444;11.034;2023-07-02T09:43:17;21.80;83.20
13472;DHT22;6808;49.444;11.034;2023-07-02T09:45:49;22.10;84.30
13472;DHT22;6808;49.444;11.034;2023-07-02T09:48:17;22.30;86.70
13472;DHT22;6808;49.444;11.034;2023-07-02T09:50:47;22.60;87.60
13472;DHT22;6808;49.444;11.034;2023-07-02T09:53:13;22.70;78.00
13472;DHT22;6808;49.444;11.034;2023-07-02T09:55:41;22.40;77.10
13472;DHT22;6808;49.444;11.034;2023-07-02T09:58:07;22.40;79.30
13472;DHT22;6808;49.444;11.034;2023-07-02T10:00:33;22.30;80.10
13472;DHT22;6808;49.444;11.034;2023-07-02T10:02:59;22.30;79.00
13472;DHT22;6808;49.444;11.034;2023-07-02T10:05:32;22.10;79.30
13472;DHT22;6808;49.444;11.034;2023-07-02T10:08:19;22.00;78.30
13472;DHT22;6808;49.444;11.034;2023-07-02T10:10:48;22.20;77.60
13472;DHT22;6808;49.444;11.034;2023-07-02T10:13:13;22.50;78.80
13472;DHT22;6808;49.444;11.034;2023-07-02T10:15:39;22.60;74.20
13472;DHT22;6808;49.444;11.034;2023-07-02T10:18:05;22.50;73.00
13472;DHT22;6808;49.444;11.034;2023-07-02T10:20:39;22.30;72.80
13472;DHT22;6808;49.444;11.034;2023-07-02T10:23:06;22.20;77.40
13472;DHT22;6808;49.444;11.034;2023-07-02T10:25:34;22.40;79.70
13472;DHT22;6808;49.444;11.034;2023-07-02T10:28:13;22.60;75.00
13472;DHT22;6808;49.444;11.034;2023-07-02T10:30:39;22.70;79.30
13472;DHT22;6808;49.444;11.034;2023-07-02T10:33:12;22.80;79.50
13472;DHT22;6808;49.444;11.034;2023-07-02T10:35:42;23.20;81.20
13472;DHT22;6808;49.444;11.034;2023-07-02T10:38:25;23.40;80.90
13472;DHT22;6808;49.444;11.034;2023-07-02T10:40:59;23.30;73.80
13472;DHT22;6808;49.444;11.034;2023-07-02T10:43:30;23.20;72.70
13472;DHT22;6808;49.444;11.034;2023-07-02T10:45:58;23.00;74.10
13472;DHT22;6808;49.444;11.034;2023-07-02T10:48:26;23.10;77.50
13472;DHT22;6808;49.444;11.034;2023-07-02T10:50:52;23.30;77.50
13472;DHT22;6808;49.444;11.034;2023-07-02T10:53:19;23.50;70.40
13472;DHT22;6808;49.444;11.034;2023-07-02T10:55:45;23.40;65.40
13472;DHT22;6808;49.444;11.034;2023-07-02T10:58:11;23.20;68.20
13472;DHT22;6808;49.444;11.034;2023-07-02T11:00:48;23.10;73.10
13472;DHT22;6808;49.444;11.034;2023-07-02T11:03:22;23.40;75.90
13472;DHT22;6808;49.444;11.034;2023-07-02T11:05:49;23.50;68.40
13472;DHT22;6808;49.444;11.034;2023-07-02T11:08:15;23.60;67.40
13472;DHT22;6808;49.444;11.034;2023-07-02T11:10:41;23.70;61.50
13472;DHT22;6808;49.444;11.034;2023-07-02T11:13:17;23.80;66.60
13472;DHT22;6808;49.444;11.034;2023-07-02T11:15:44;23.80;62.90
13472;DHT22;6808;49.444;11.034;2023-07-02T11:18:11;24.00;62.70
13472;DHT22;6808;49.444;11.034;2023-07-02T11:20:38;24.20;61.60
13472;DHT22;6808;49.444;11.034;2023-07-02T11:23:04;24.30;59.10
13472;DHT22;6808;49.444;11.034;2023-07-02T11:25:29;24.50;60.80
13472;DHT22;6808;49.444;11.034;2023-07-02T11:28:04;24.80;60.80
13472;DHT22;6808;49.444;11.034;2023-07-02T11:30:30;24.70;57.00
13472;DHT22;6808;49.444;11.034;2023-07-02T11:32:56;24.80;57.20
13472;DHT22;6808;49.444;11.034;2023-07-02T11:35:22;24.80;56.50
13472;DHT22;6808;49.444;11.034;2023-07-02T11:37:58;24.60;54.50
13472;DHT22;6808;49.444;11.034;2023-07-02T11:40:24;24.60;56.50
13472;DHT22;6808;49.444;11.034;2023-07-02T11:42:50;24.90;59.90
13472;DHT22;6808;49.444;11.034;2023-07-02T11:45:15;25.10;58.40
13472;DHT22;6808;49.444;11.034;2023-07-02T11:47:41;25.20;56.60
13472;DHT22;6808;49.444;11.034;2023-07-02T11:50:07;25.20;56.80
13472;DHT22;6808;49.444;11.034;2023-07-02T11:52:33;25.30;54.90
13472;DHT22;6808;49.444;11.034;2023-07-02T11:54:58;25.20;56.20
13472;DHT22;6808;49.444;11.034;2023-07-02T11:57:24;25.00;54.10
13472;DHT22;6808;49.444;11.034;2023-07-02T11:59:50;24.80;55.00
13472;DHT22;6808;49.444;11.034;2023-07-02T12:02:15;24.60;55.90
13472;DHT22;6808;49.444;11.034;2023-07-02T12:04:42;24.30;54.90
13472;DHT22;6808;49.444;11.034;2023-07-02T12:07:07;24.30;56.80
13472;DHT22;6808;49.444;11.034;2023-07-02T12:09:33;24.40;55.20
13472;DHT22;6808;49.444;11.034;2023-07-02T12:11:58;24.60;58.20
13472;DHT22;6808;49.444;11.034;2023-07-02T12:14:24;24.70;58.00
13472;DHT22;6808;49.444;11.034;2023-07-02T12:16:50;25.00;56.90
13472;DHT22;6808;49.444;11.034;2023-07-02T12:19:15;25.00;57.10
13472;DHT22;6808;49.444;11.034;2023-07-02T12:21:41;25.10;55.40
13472;DHT22;6808;49.444;11.034;2023-07-02T12:24:06;24.90;56.10
13472;DHT22;6808;49.444;11.034;2023-07-02T12:26:35;24.80;55.20
13472;DHT22;6808;49.444;11.034;2023-07-02T12:29:01;24.50;54.50
13472;DHT22;6808;49.444;11.034;2023-07-02T12:31:27;24.30;54.50
13472;DHT22;6808;49.444;11.034;2023-07-02T12:33:52;24.20;54.80
13472;DHT22;6808;49.444;11.034;2023-07-02T12:36:18;24.00;53.90
13472;DHT22;6808;49.444;11.034;2023-07-02T12:38:43;23.80;53.30
13472;DHT22;6808;49.444;11.034;2023-07-02T12:41:09;23.70;53.00
13472;DHT22;6808;49.444;11.034;2023-07-02T12:43:34;23.90;57.10
13472;DHT22;6808;49.444;11.034;2023-07-02T12:46:00;24.20;56.10
13472;DHT22;6808;49.444;11.034;2023-07-02T12:48:25;24.50;57.20
13472;DHT22;6808;49.444;11.034;2023-07-02T12:50:56;24.80;54.80
13472;DHT22;6808;49.444;11.034;2023-07-02T12:53:22;25.00;56.90
13472;DHT22;6808;49.444;11.034;2023-07-02T12:55:48;25.20;56.90
13472;DHT22;6808;49.444;11.034;2023-07-02T12:58:13;25.50;55.00
13472;DHT22;6808;49.444;11.034;2023-07-02T13:00:39;25.50;54.50
13472;DHT22;6808;49.444;11.034;2023-07-02T13:03:04;25.40;54.80
13472;DHT22;6808;49.444;11.034;2023-07-02T13:05:30;25.30;52.80
13472;DHT22;6808;49.444;11.034;2023-07-02T13:07:55;25.20;54.10
13472;DHT22;6808;49.444;11.034;2023-07-02T13:10:21;25.30;53.70
13472;DHT22;6808;49.444;11.034;2023-07-02T13:12:46;25.30;54.60
13472;DHT22;6808;49.444;11.034;2023-07-02T13:15:12;25.30;54.10
13472;DHT22;6808;49.444;11.034;2023-07-02T13:17:38;25.50;53.40
13472;DHT22;6808;49.444;11.034;2023-07-02T13:20:04;25.30;52.90
13472;DHT22;6808;49.444;11.034;2023-07-02T13:22:30;25.40;53.40
13472;DHT22;6808;49.444;11.034;2023-07-02T13:24:56;25.50;55.10
13472;DHT22;6808;49.444;11.034;2023-07-02T13:27:21;25.60;51.80
13472;DHT22;6808;49.444;11.034;2023-07-02T13:29:47;25.30;51.70
13472;DHT22;6808;49.444;11.034;2023-07-02T13:32:12;25.30;51.80
13472;DHT22;6808;49.444;11.034;2023-07-02T13:34:38;25.50;56.00
13472;DHT22;6808;49.444;11.034;2023-07-02T13:37:04;25.70;53.40
13472;DHT22;6808;49.444;11.034;2023-07-02T13:39:30;25.70;52.30
13472;DHT22;6808;49.444;11.034;2023-07-02T13:41:56;25.60;52.20
13472;DHT22;6808;49.444;11.034;2023-07-02T13:44:22;25.80;52.30
13472;DHT22;6808;49.444;11.034;2023-07-02T13:46:48;25.90;53.00
13472;DHT22;6808;49.444;11.034;2023-07-02T13:49:14;25.70;50.30
13472;DHT22;6808;49.444;11.034;2023-07-02T13:51:40;25.50;50.90
13472;DHT22;6808;49.444;11.034;2023-07-02T13:54:06;25.40;51.50
13472;DHT22;6808;49.444;11.034;2023-07-02T13:56:31;25.20;52.50
13472;DHT22;6808;49.444;11.034;2023-07-02T14:01:25;25.40;52.10
13472;DHT22;6808;49.444;11.034;2023-07-02T14:03:51;25.20;51.50
13472;DHT22;6808;49.444;11.034;2023-07-02T14:06:19;25.10;52.50
13472;DHT22;6808;49.444;11.034;2023-07-02T14:08:44;25.20;52.80
13472;DHT22;6808;49.444;11.034;2023-07-02T14:11:10;25.20;52.60
13472;DHT22;6808;49.444;11.034;2023-07-02T14:13:36;25.10;51.40
13472;DHT22;6808;49.444;11.034;2023-07-02T14:16:01;25.20;52.50
13472;DHT22;6808;49.444;11.034;2023-07-02T14:18:27;25.10;51.40
13472;DHT22;6808;49.444;11.034;2023-07-02T14:20:52;25.10;52.60
13472;DHT22;6808;49.444;11.034;2023-07-02T14:23:18;24.90;51.50
13472;DHT22;6808;49.444;11.034;2023-07-02T14:25:43;24.90;52.10
13472;DHT22;6808;49.444;11.034;2023-07-02T14:28:09;24.80;52.30
13472;DHT22;6808;49.444;11.034;2023-07-02T14:30:35;24.70;52.50
13472;DHT22;6808;49.444;11.034;2023-07-02T14:33:01;24.70;52.30
13472;DHT22;6808;49.444;11.034;2023-07-02T14:35:27;24.60;51.60
13472;DHT22;6808;49.444;11.034;2023-07-02T14:37:55;24.70;52.90
13472;DHT22;6808;49.444;11.034;2023-07-02T14:40:20;24.60;51.50
13472;DHT22;6808;49.444;11.034;2023-07-02T14:42:46;24.50;51.70
13472;DHT22;6808;49.444;11.034;2023-07-02T14:45:12;24.50;52.00
13472;DHT22;6808;49.444;11.034;2023-07-02T14:47:38;24.60;52.70
13472;DHT22;6808;49.444;11.034;2023-07-02T14:50:04;24.70;52.50
13472;DHT22;6808;49.444;11.034;2023-07-02T14:52:30;24.70;53.50
13472;DHT22;6808;49.444;11.034;2023-07-02T14:54:55;24.70;52.20
13472;DHT22;6808;49.444;11.034;2023-07-02T14:57:24;24.60;52.50
13472;DHT22;6808;49.444;11.034;2023-07-02T14:59:50;24.60;52.80
13472;DHT22;6808;49.444;11.034;2023-07-02T15:02:17;24.70;52.20
13472;DHT22;6808;49.444;11.034;2023-07-02T15:04:43;24.80;52.00
13472;DHT22;6808;49.444;11.034;2023-07-02T15:07:09;24.80;51.30
13472;DHT22;6808;49.444;11.034;2023-07-02T15:09:34;24.80;52.50
13472;DHT22;6808;49.444;11.034;2023-07-02T15:12:00;24.70;50.70
13472;DHT22;6808;49.444;11.034;2023-07-02T15:14:25;24.70;50.90
13472;DHT22;6808;49.444;11.034;2023-07-02T15:16:51;24.70;52.60
13472;DHT22;6808;49.444;11.034;2023-07-02T15:19:18;24.80;52.60
13472;DHT22;6808;49.444;11.034;2023-07-02T15:21:43;24.70;52.10
13472;DHT22;6808;49.444;11.034;2023-07-02T15:24:09;24.80;52.10
13472;DHT22;6808;49.444;11.034;2023-07-02T15:26:38;24.90;52.30
13472;DHT22;6808;49.444;11.034;2023-07-02T15:29:04;24.90;50.30
13472;DHT22;6808;49.444;11.034;2023-07-02T15:31:30;24.90;50.10
13472;DHT22;6808;49.444;11.034;2023-07-02T15:33:55;24.80;50.70
13472;DHT22;6808;49.444;11.034;2023-07-02T15:36:21;24.70;49.80
13472;DHT22;6808;49.444;11.034;2023-07-02T15:38:50;24.60;50.50
13472;DHT22;6808;49.444;11.034;2023-07-02T15:41:18;24.60;51.10
13472;DHT22;6808;49.444;11.034;2023-07-02T15:43:47;24.60;50.20
13472;DHT22;6808;49.444;11.034;2023-07-02T15:46:15;24.60;50.40
13472;DHT22;6808;49.444;11.034;2023-07-02T15:48:41;24.50;50.60
13472;DHT22;6808;49.444;11.034;2023-07-02T15:51:08;24.50;50.90
13472;DHT22;6808;49.444;11.034;2023-07-02T15:53:37;24.50;51.90
13472;DHT22;6808;49.444;11.034;2023-07-02T15:56:02;24.50;50.50
13472;DHT22;6808;49.444;11.034;2023-07-02T15:58:30;24.50;51.60
13472;DHT22;6808;49.444;11.034;2023-07-02T16:00:56;24.50;51.10
13472;DHT22;6808;49.444;11.034;2023-07-02T16:03:32;24.30;49.70
13472;DHT22;6808;49.444;11.034;2023-07-02T16:05:58;24.10;50.10
13472;DHT22;6808;49.444;11.034;2023-07-02T16:08:23;24.10;51.80
13472;DHT22;6808;49.444;11.034;2023-07-02T16:10:49;23.90;49.80
13472;DHT22;6808;49.444;11.034;2023-07-02T16:13:14;24.00;50.60
13472;DHT22;6808;49.444;11.034;2023-07-02T16:15:40;24.00;51.30
13472;DHT22;6808;49.444;11.034;2023-07-02T16:18:07;24.10;51.90
13472;DHT22;6808;49.444;11.034;2023-07-02T16:20:33;24.10;51.20
13472;DHT22;6808;49.444;11.034;2023-07-02T16:23:00;24.20;51.30
13472;DHT22;6808;49.444;11.034;2023-07-02T16:25:26;24.10;51.50
13472;DHT22;6808;49.444;11.034;2023-07-02T16:27:51;24.10;51.30
13472;DHT22;6808;49.444;11.034;2023-07-02T16:30:17;24.10;53.30
13472;DHT22;6808;49.444;11.034;2023-07-02T16:32:42;24.10;52.00
13472;DHT22;6808;49.444;11.034;2023-07-02T16:35:08;24.00;51.40
13472;DHT22;6808;49.444;11.034;2023-07-02T16:37:33;24.00;51.20
13472;DHT22;6808;49.444;11.034;2023-07-02T16:39:59;24.00;52.30
13472;DHT22;6808;49.444;11.034;2023-07-02T16:42:24;24.10;53.80
13472;DHT22;6808;49.444;11.034;2023-07-02T16:44:50;24.10;52.80
13472;DHT22;6808;49.444;11.034;2023-07-02T16:47:15;24.20;52.10
13472;DHT22;6808;49.444;11.034;2023-07-02T16:49:41;24.10;50.90
13472;DHT22;6808;49.444;11.034;2023-07-02T16:52:09;24.00;53.20
13472;DHT22;6808;49.444;11.034;2023-07-02T16:54:35;24.00;53.10
13472;DHT22;6808;49.444;11.034;2023-07-02T16:57:01;24.00;51.40
13472;DHT22;6808;49.444;11.034;2023-07-02T16:59:29;24.10;51.90
13472;DHT22;6808;49.444;11.034;2023-07-02T17:01:56;24.00;52.70
13472;DHT22;6808;49.444;11.034;2023-07-02T17:04:24;24.00;51.40
13472;DHT22;6808;49.444;11.034;2023-07-02T17:06:52;24.00;50.80
13472;DHT22;6808;49.444;11.034;2023-07-02T17:11:59;24.00;51.70
13472;DHT22;6808;49.444;11.034;2023-07-02T17:14:26;24.00;52.80
13472;DHT22;6808;49.444;11.034;2023-07-02T17:16:55;23.90;53.00
13472;DHT22;6808;49.444;11.034;2023-07-02T17:19:27;23.80;52.10
13472;DHT22;6808;49.444;11.034;2023-07-02T17:21:53;23.80;51.80
13472;DHT22;6808;49.444;11.034;2023-07-02T17:24:25;23.80;51.90
13472;DHT22;6808;49.444;11.034;2023-07-02T17:26:53;23.80;52.10
13472;DHT22;6808;49.444;11.034;2023-07-02T17:29:19;23.60;51.40
13472;DHT22;6808;49.444;11.034;2023-07-02T17:31:50;23.60;51.30
13472;DHT22;6808;49.444;11.034;2023-07-02T17:34:17;23.50;52.10
13472;DHT22;6808;49.444;11.034;2023-07-02T17:36:55;23.40;51.10
13472;DHT22;6808;49.444;11.034;2023-07-02T17:39:21;23.40;51.40
13472;DHT22;6808;49.444;11.034;2023-07-02T17:41:50;23.40;52.00
13472;DHT22;6808;49.444;11.034;2023-07-02T17:44:18;23.30;51.70
13472;DHT22;6808;49.444;11.034;2023-07-02T17:46:55;23.30;51.90
13472;DHT22;6808;49.444;11.034;2023-07-02T17:49:22;23.20;52.40
13472;DHT22;6808;49.444;11.034;2023-07-02T17:51:48;23.20;52.70
13472;DHT22;6808;49.444;11.034;2023-07-02T17:54:15;23.10;51.80
13472;DHT22;6808;49.444;11.034;2023-07-02T17:56:41;23.10;53.20
13472;DHT22;6808;49.444;11.034;2023-07-02T17:59:06;23.10;53.50
13472;DHT22;6808;49.444;11.034;2023-07-02T18:01:44;23.10;52.60
13472;DHT22;6808;49.444;11.034;2023-07-02T18:04:11;23.10;53.60
13472;DHT22;6808;49.444;11.034;2023-07-02T18:06:41;23.10;53.40
13472;DHT22;6808;49.444;11.034;2023-07-02T18:09:07;23.00;53.30
13472;DHT22;6808;49.444;11.034;2023-07-02T18:11:33;22.90;52.50
13472;DHT22;6808;49.444;11.034;2023-07-02T18:13:59;22.80;52.90
13472;DHT22;6808;49.444;11.034;2023-07-02T18:16:25;22.80;53.10
13472;DHT22;6808;49.444;11.034;2023-07-02T18:18:51;22.80;52.50
13472;DHT22;6808;49.444;11.034;2023-07-02T18:21:17;22.70;52.80
13472;DHT22;6808;49.444;11.034;2023-07-02T18:23:42;22.70;53.40
13472;DHT22;6808;49.444;11.034;2023-07-02T18:26:08;22.70;54.50
13472;DHT22;6808;49.444;11.034;2023-07-02T18:28:33;22.60;54.10
13472;DHT22;6808;49.444;11.034;2023-07-02T18:31:00;22.60;54.30
13472;DHT22;6808;49.444;11.034;2023-07-02T18:33:26;22.50;54.20
13472;DHT22;6808;49.444;11.034;2023-07-02T18:35:51;22.50;53.80
13472;DHT22;6808;49.444;11.034;2023-07-02T18:38:18;22.50;53.70
13472;DHT22;6808;49.444;11.034;2023-07-02T18:40:44;22.40;54.10
13472;DHT22;6808;49.444;11.034;2023-07-02T18:43:11;22.30;54.00
13472;DHT22;6808;49.444;11.034;2023-07-02T18:45:37;22.30;54.20
13472;DHT22;6808;49.444;11.034;2023-07-02T18:48:03;22.30;55.00
13472;DHT22;6808;49.444;11.034;2023-07-02T18:50:30;22.30;55.10
13472;DHT22;6808;49.444;11.034;2023-07-02T18:52:55;22.30;55.30
13472;DHT22;6808;49.444;11.034;2023-07-02T18:55:21;22.20;55.80
13472;DHT22;6808;49.444;11.034;2023-07-02T18:57:47;22.20;55.80
13472;DHT22;6808;49.444;11.034;2023-07-02T19:00:13;22.10;55.70